createdAt,value
2019-01-25T00:02:55.561Z,8.87
2019-01-25T00:07:02.522Z,8.77
2019-01-25T00:11:09.098Z,8.70
2019-01-25T00:15:22.392Z,7.77
2019-01-25T00:19:28.886Z,9.03
2019-01-25T00:23:54.995Z,6.70
2019-01-25T00:28:01.355Z,5.93
2019-01-25T00:32:09.293Z,8.53
2019-01-25T00:36:17.358Z,6.33
2019-01-25T00:40:23.877Z,8.87
2019-01-25T00:44:30.693Z,9.27
2019-01-25T00:48:39.043Z,9.97
2019-01-25T00:57:51.496Z,7.90
2019-01-25T01:01:57.998Z,8.30
2019-01-25T01:10:14.257Z,9.50
2019-01-25T01:14:21.685Z,9.17
2019-01-25T01:18:28.807Z,7.90
2019-01-25T01:22:35.929Z,5.87
2019-01-25T01:26:47.476Z,7.77
2019-01-25T01:30:53.921Z,5.87
2019-01-25T01:35:00.564Z,8.73
2019-01-25T01:39:09.839Z,8.30
2019-01-25T01:43:18.495Z,6.30
2019-01-25T01:47:25.012Z,7.60
2019-01-25T01:51:34.685Z,6.93
2019-01-25T01:55:41.804Z,6.93
2019-01-25T01:59:48.841Z,10.53
2019-01-25T02:04:01.009Z,6.40
2019-01-25T02:08:08.921Z,7.63
2019-01-25T02:12:16.702Z,6.97
2019-01-25T02:16:23.364Z,6.73
2019-01-25T02:20:31.718Z,4.93
2019-01-25T02:24:38.300Z,4.27
2019-01-25T02:28:44.825Z,7.47
2019-01-25T02:33:30.678Z,5.90
2019-01-25T02:37:37.700Z,5.73
2019-01-25T02:41:47.113Z,5.10
2019-01-25T02:45:53.834Z,6.37
2019-01-25T02:50:00.318Z,6.40
2019-01-25T02:54:08.409Z,6.67
2019-01-25T02:58:14.980Z,7.50
2019-01-25T03:02:22.821Z,6.97
2019-01-25T03:06:31.389Z,8.00
2019-01-25T03:10:38.041Z,6.17
2019-01-25T03:14:47.001Z,7.57
2019-01-25T03:18:56.445Z,7.37
2019-01-25T03:23:02.786Z,5.80
2019-01-25T03:27:11.152Z,6.53
2019-01-25T03:31:17.654Z,3.50
2019-01-25T03:35:28.784Z,5.03
2019-01-25T03:39:35.591Z,6.53
2019-01-25T03:43:42.488Z,5.10
2019-01-25T03:47:52.296Z,5.90
2019-01-25T03:52:00.304Z,6.77
2019-01-25T03:56:28.778Z,4.60
2019-01-25T04:00:36.881Z,5.63
2019-01-25T04:04:47.538Z,5.80
2019-01-25T04:08:55.209Z,5.87
2019-01-25T04:13:01.618Z,6.60
2019-01-25T04:17:08.768Z,3.67
2019-01-25T04:21:15.435Z,6.60
2019-01-25T04:25:27.290Z,5.93
2019-01-25T04:29:33.500Z,5.93
2019-01-25T04:33:41.310Z,5.57
2019-01-25T04:38:08.060Z,6.83
2019-01-25T04:42:15.354Z,4.47
2019-01-25T04:46:22.870Z,5.13
2019-01-25T04:50:31.184Z,3.67
2019-01-25T04:54:37.834Z,3.90
2019-01-25T04:58:49.252Z,6.90
2019-01-25T05:02:57.991Z,5.33
2019-01-25T05:11:20.043Z,6.70
2019-01-25T05:15:28.496Z,6.37
2019-01-25T05:19:41.628Z,6.10
2019-01-25T05:23:50.714Z,5.07
2019-01-25T05:27:58.043Z,5.50
2019-01-25T05:32:29.428Z,5.47
2019-01-25T05:36:36.127Z,6.73
2019-01-25T05:40:43.723Z,5.40
2019-01-25T05:45:16.434Z,4.97
2019-01-25T05:49:31.849Z,4.53
2019-01-25T05:53:38.301Z,4.47
2019-01-25T05:57:47.060Z,5.90
2019-01-25T06:01:56.036Z,6.27
2019-01-25T06:06:08.087Z,5.37
2019-01-25T06:10:14.674Z,5.30
2019-01-25T06:14:21.587Z,6.27
2019-01-25T06:18:30.690Z,6.13
2019-01-25T06:22:40.254Z,6.20
2019-01-25T06:26:48.507Z,5.17
2019-01-25T06:31:01.718Z,5.53
2019-01-25T06:35:08.332Z,6.13
2019-01-25T06:39:18.634Z,7.07
2019-01-25T06:43:25.115Z,6.30
2019-01-25T06:47:31.711Z,7.07
2019-01-25T06:51:39.784Z,6.73
2019-01-25T06:55:49.401Z,6.30
2019-01-25T06:59:57.192Z,7.73
2019-01-25T07:04:05.284Z,6.40
2019-01-25T07:08:19.145Z,7.73
2019-01-25T07:12:26.502Z,11.70
2019-01-25T07:16:35.166Z,17.23
2019-01-25T07:20:41.922Z,8.97
2019-01-25T07:24:49.382Z,7.67
2019-01-25T07:28:58.331Z,7.87
2019-01-25T07:33:16.878Z,20.87
2019-01-25T07:37:24.567Z,6.80
2019-01-25T07:41:34.379Z,10.73
2019-01-25T07:45:44.787Z,10.53
2019-01-25T07:49:51.362Z,7.83
2019-01-25T07:53:58.252Z,8.20
2019-01-25T07:58:13.693Z,8.33
2019-01-25T08:02:22.569Z,8.57
2019-01-25T08:06:34.338Z,7.53
2019-01-25T08:10:41.175Z,8.83
2019-01-25T08:14:48.954Z,6.97
2019-01-25T08:18:55.873Z,6.93
2019-01-25T08:23:02.941Z,8.40
2019-01-25T08:27:12.993Z,6.93
2019-01-25T08:31:20.508Z,6.30
2019-01-25T08:35:28.726Z,6.97
2019-01-25T08:39:35.290Z,6.60
2019-01-25T08:43:43.020Z,6.33
2019-01-25T08:47:53.449Z,6.30
2019-01-25T08:52:00.291Z,7.00
2019-01-25T08:56:08.935Z,6.40
2019-01-25T09:00:18.470Z,7.43
2019-01-25T09:04:27.776Z,5.10
2019-01-25T09:08:35.483Z,7.70
2019-01-25T09:12:42.375Z,8.03
2019-01-25T09:16:49.515Z,8.07
2019-01-25T09:20:59.125Z,9.57
2019-01-25T09:25:27.405Z,8.13
2019-01-25T09:29:33.821Z,7.67
2019-01-25T09:33:41.224Z,7.80
2019-01-25T09:37:49.199Z,8.70
2019-01-25T09:41:56.994Z,6.13
2019-01-25T09:46:03.610Z,8.40
2019-01-25T09:50:15.075Z,7.50
2019-01-25T09:54:22.070Z,8.20
2019-01-25T09:58:30.675Z,6.67
2019-01-25T10:02:37.652Z,8.13
2019-01-25T10:06:44.819Z,7.77
2019-01-25T10:11:33.283Z,6.30
2019-01-25T10:15:41.710Z,7.33
2019-01-25T10:19:50.270Z,6.73
2019-01-25T10:23:58.471Z,6.93
2019-01-25T10:32:19.765Z,7.93
2019-01-25T10:36:30.506Z,7.03
2019-01-25T10:40:40.754Z,7.07
2019-01-25T10:44:50.872Z,6.10
2019-01-25T10:49:00.818Z,8.10
2019-01-25T10:53:08.847Z,8.90
2019-01-25T10:57:15.620Z,8.67
2019-01-25T11:01:22.171Z,9.53
2019-01-25T11:05:34.647Z,9.27
2019-01-25T11:09:43.094Z,16.80
2019-01-25T11:13:54.745Z,8.80
2019-01-25T11:18:09.485Z,9.53
2019-01-25T11:22:21.375Z,10.07
2019-01-25T11:26:30.792Z,13.33
2019-01-25T11:30:37.538Z,12.13
2019-01-25T11:35:12.152Z,9.27
2019-01-25T11:39:16.548Z,10.77
2019-01-25T11:43:23.104Z,10.00
2019-01-25T11:47:36.055Z,9.77
2019-01-25T11:51:42.539Z,9.90
2019-01-25T11:55:57.556Z,13.87
2019-01-25T12:00:10.238Z,13.47
2019-01-25T12:04:24.397Z,9.27
2019-01-25T12:08:34.437Z,10.40
2019-01-25T12:12:44.831Z,9.90
2019-01-25T12:16:54.032Z,10.20
2019-01-25T12:21:09.057Z,10.43
2019-01-25T12:25:36.017Z,10.13
2019-01-25T12:34:00.031Z,9.90
2019-01-25T12:38:15.941Z,10.17
2019-01-25T12:42:24.028Z,10.07
2019-01-25T12:46:57.898Z,11.30
2019-01-25T12:51:28.099Z,10.00
2019-01-25T12:55:37.893Z,11.53
2019-01-25T12:59:44.402Z,11.47
2019-01-25T13:08:49.825Z,11.97
2019-01-25T13:13:13.605Z,11.00
2019-01-25T13:18:04.131Z,11.40
2019-01-25T13:22:32.988Z,11.97
2019-01-25T13:26:40.734Z,11.40
2019-01-25T13:35:01.235Z,14.50
2019-01-25T13:39:14.299Z,13.00
2019-01-25T13:43:22.120Z,12.50
2019-01-25T13:47:36.900Z,13.70
2019-01-25T13:51:43.998Z,12.93
2019-01-25T13:55:54.925Z,13.03
2019-01-25T14:00:09.441Z,15.50
2019-01-25T14:04:37.985Z,13.73
2019-01-25T14:08:45.728Z,14.07
2019-01-25T14:12:54.962Z,18.10
2019-01-25T14:17:05.129Z,14.73
2019-01-25T14:21:34.574Z,13.93
2019-01-25T14:25:41.204Z,13.40
2019-01-25T14:29:49.488Z,12.57
2019-01-25T14:33:58.862Z,14.17
2019-01-25T14:38:09.027Z,15.50
2019-01-25T14:42:44.495Z,12.77
2019-01-25T14:47:15.933Z,14.80
2019-01-25T14:51:25.247Z,13.77
2019-01-25T15:00:04.258Z,14.83
2019-01-25T15:04:12.451Z,15.77
2019-01-25T15:08:23.337Z,17.97
2019-01-25T15:12:30.171Z,17.57
2019-01-25T15:16:41.112Z,20.10
2019-01-25T15:20:59.909Z,20.30
2019-01-25T15:25:11.975Z,19.43
2019-01-25T15:29:19.279Z,20.03
2019-01-25T15:33:46.411Z,21.53
2019-01-25T15:37:54.037Z,21.00
2019-01-25T15:42:13.556Z,22.50
2019-01-25T15:46:25.772Z,22.03
2019-01-25T15:50:33.585Z,22.47
2019-01-25T15:54:44.477Z,22.20
2019-01-25T15:58:50.968Z,22.10
2019-01-25T16:02:59.321Z,20.90
2019-01-25T16:07:06.177Z,23.70
2019-01-25T16:11:16.653Z,21.43
2019-01-25T16:15:24.073Z,22.53
2019-01-25T16:19:30.679Z,20.20
2019-01-25T16:23:37.287Z,19.83
2019-01-25T16:27:49.760Z,20.00
2019-01-25T16:31:56.311Z,21.17
2019-01-25T16:36:06.334Z,20.20
2019-01-25T16:40:16.577Z,20.93
2019-01-25T16:44:27.809Z,19.97
2019-01-25T16:48:34.254Z,20.90
2019-01-25T16:53:03.548Z,24.67
2019-01-25T16:57:11.767Z,20.07
2019-01-25T17:01:18.484Z,21.80
2019-01-25T17:05:28.966Z,20.67
2019-01-25T17:09:37.699Z,23.67
2019-01-25T17:13:44.577Z,23.90
2019-01-25T17:17:53.711Z,26.03
2019-01-25T17:22:05.665Z,24.77
2019-01-25T17:26:08.390Z,27.17
2019-01-25T17:30:25.147Z,25.73
2019-01-25T17:34:32.027Z,27.00
2019-01-25T17:38:39.510Z,26.83
2019-01-25T17:42:49.391Z,26.43
2019-01-25T17:46:56.358Z,26.27
2019-01-25T17:51:06.238Z,28.27
2019-01-25T17:55:19.078Z,28.27
2019-01-25T17:59:48.896Z,25.03
2019-01-25T18:03:56.294Z,30.23
2019-01-25T18:08:04.772Z,29.23
2019-01-25T18:12:13.195Z,29.17
2019-01-25T18:16:26.108Z,29.57
2019-01-25T18:20:33.793Z,32.00
2019-01-25T18:24:43.618Z,33.77
2019-01-25T18:29:04.275Z,31.27
2019-01-25T18:33:12.264Z,29.63
2019-01-25T18:37:19.214Z,30.13
2019-01-25T18:41:49.421Z,28.30
2019-01-25T18:45:56.041Z,22.67
2019-01-25T18:50:05.553Z,27.80
2019-01-25T18:54:12.821Z,24.90
2019-01-25T18:58:22.578Z,28.20
2019-01-25T19:02:32.408Z,21.20
2019-01-25T19:06:40.171Z,30.03
2019-01-25T19:10:46.430Z,31.33
2019-01-25T19:14:55.823Z,23.53
2019-01-25T19:19:08.614Z,32.90
2019-01-25T19:23:15.809Z,30.90
2019-01-25T19:27:24.664Z,32.00
2019-01-25T19:31:32.672Z,33.00
2019-01-25T19:35:40.193Z,25.90
2019-01-25T19:39:47.233Z,31.20
2019-01-25T19:43:54.805Z,30.00
2019-01-25T19:48:01.887Z,31.67
2019-01-25T19:52:10.277Z,29.53
2019-01-25T19:56:18.141Z,28.90
2019-01-25T20:00:30.694Z,24.67
2019-01-25T20:04:39.990Z,30.13
2019-01-25T20:08:46.874Z,31.83
2019-01-25T20:12:56.005Z,31.67
2019-01-25T20:17:03.643Z,29.40
2019-01-25T20:21:12.978Z,29.43
2019-01-25T20:25:22.260Z,29.17
2019-01-25T20:29:28.870Z,22.33
2019-01-25T20:33:56.680Z,27.13
2019-01-25T20:38:07.643Z,26.93
2019-01-25T20:42:16.059Z,30.27
2019-01-25T20:46:24.842Z,27.27
2019-01-25T20:50:35.923Z,27.10
2019-01-25T20:54:45.419Z,20.83
2019-01-25T20:58:54.547Z,20.43
2019-01-25T21:03:02.536Z,23.70
2019-01-25T21:11:19.907Z,27.70
2019-01-25T21:15:34.779Z,22.37
2019-01-25T21:19:36.951Z,27.87
2019-01-25T21:23:52.218Z,31.30
2019-01-25T21:27:58.830Z,27.13
2019-01-25T21:32:06.836Z,28.10
2019-01-25T21:36:17.568Z,21.90
2019-01-25T21:40:27.561Z,27.33
2019-01-25T21:44:35.413Z,30.90
2019-01-25T21:48:44.897Z,30.40
2019-01-25T21:52:56.499Z,27.83
2019-01-25T21:57:03.280Z,27.50
2019-01-25T22:01:10.054Z,27.00
2019-01-25T22:05:16.836Z,28.10
2019-01-25T22:09:24.378Z,26.53
2019-01-25T22:13:34.160Z,30.33
2019-01-25T22:17:42.278Z,27.23
2019-01-25T22:21:49.819Z,27.43
2019-01-25T22:25:59.531Z,29.27
2019-01-25T22:30:08.338Z,27.67
2019-01-25T22:34:18.814Z,22.00
2019-01-25T22:38:27.655Z,29.53
2019-01-25T22:42:37.210Z,33.43
2019-01-25T22:46:44.494Z,34.07
2019-01-25T22:51:12.042Z,34.87
2019-01-25T22:55:20.915Z,29.00
2019-01-25T22:59:30.091Z,30.17
2019-01-25T23:03:40.192Z,29.60
2019-01-25T23:07:49.043Z,32.53
2019-01-25T23:11:56.825Z,32.33
2019-01-25T23:16:06.524Z,31.23
2019-01-25T23:20:15.696Z,29.77
2019-01-25T23:24:25.582Z,34.23
2019-01-25T23:28:35.625Z,32.23
2019-01-25T23:32:42.220Z,32.83
2019-01-25T23:36:52.857Z,28.53
2019-01-25T23:40:59.632Z,30.97
2019-01-25T23:45:10.410Z,30.53
2019-01-25T23:49:16.962Z,35.13
2019-01-25T23:53:23.855Z,35.17
2019-01-25T23:57:32.373Z,29.73
